Time;durP1;ratioP1;P1;durP2;ratioP2;P2;SDS_P1;SDS_P2;PMS_P1;PMS_P2;Temp;Humidity;BMP_temperature;BMP_pressure;BME280_temperature;BME280_humidity;BME280_pressure;Samples;Min_cycle;Max_cycle;Signal;HPM_P1;HPM_P2
2022/11/14 00:00:02;;;;;;;24.05;15.82;;;;;;;-0.26;100.00;101337.31;10330648;28;20594;-77
2022/11/14 00:05:04;;;;;;;24.00;17.00;;;;;;;-0.35;100.00;101332.19;10347927;28;20463;-78
2022/11/14 00:10:05;;;;;;;28.87;18.43;;;;;;;-0.44;100.00;101316.72;10363627;28;20038;-78
2022/11/14 00:15:06;;;;;;;27.17;18.35;;;;;;;-0.48;100.00;101318.09;10364196;28;20053;-78
2022/11/14 00:20:08;;;;;;;29.70;20.52;;;;;;;-0.43;100.00;101309.94;10363054;28;20042;-78
2022/11/14 00:25:09;;;;;;;26.75;17.52;;;;;;;-0.41;100.00;101311.00;10362823;28;20477;-78
2022/11/14 00:30:09;;;;;;;32.53;19.60;;;;;;;-0.45;100.00;101308.13;10362029;28;20053;-78
2022/11/14 00:35:10;;;;;;;24.98;18.60;;;;;;;-0.49;100.00;101306.00;10362391;28;20108;-78
2022/11/14 00:40:11;;;;;;;32.92;20.80;;;;;;;-0.48;100.00;101301.75;10364816;28;20125;-78
2022/11/14 00:45:11;;;;;;;27.60;18.85;;;;;;;-0.41;100.00;101293.00;10361118;28;20048;-78
2022/11/14 00:50:12;;;;;;;26.42;21.05;;;;;;;-0.28;100.00;101285.72;10362852;28;20120;-79
2022/11/14 00:55:12;;;;;;;28.70;20.15;;;;;;;-0.10;100.00;101290.84;10363083;28;20117;-78
2022/11/14 01:00:13;;;;;;;28.65;20.30;;;;;;;-0.16;100.00;101276.63;10362536;28;20034;-79
2022/11/14 01:05:14;;;;;;;30.60;21.00;;;;;;;-0.07;100.00;101275.69;10328414;28;20038;-78
2022/11/14 01:10:15;;;;;;;26.77;19.63;;;;;;;0.25;100.00;101272.75;10362528;28;20040;-78
2022/11/14 01:15:15;;;;;;;27.53;19.00;;;;;;;0.30;100.00;101268.94;10360751;28;20455;-78
2022/11/14 01:20:16;;;;;;;40.05;19.90;;;;;;;0.11;100.00;101267.19;10344898;28;20038;-78
2022/11/14 01:25:17;;;;;;;25.77;17.98;;;;;;;-0.04;100.00;101256.28;10360218;28;20042;-77
2022/11/14 01:30:17;;;;;;;27.05;18.50;;;;;;;-0.24;100.00;101262.09;10363303;28;20097;-78
2022/11/14 01:35:18;;;;;;;23.88;16.98;;;;;;;-0.36;100.00;101259.22;10360647;28;20781;-78
2022/11/14 01:40:18;;;;;;;24.63;18.10;;;;;;;-0.34;100.00;101252.56;10346142;28;20132;-78
2022/11/14 01:45:51;;;;;;;24.92;17.70;;;;;;;-0.39;100.00;101256.34;10360616;28;20485;-78
2022/11/14 01:50:56;;;;;;;26.55;19.23;;;;;;;-0.53;100.00;101247.31;10359884;28;20046;-78
2022/11/14 01:55:58;;;;;;;26.42;16.98;;;;;;;-0.52;100.00;101248.19;10342122;28;20046;-78
2022/11/14 02:00:58;;;;;;;24.73;18.65;;;;;;;-0.48;100.00;101242.59;10360670;28;20034;-78
2022/11/14 02:05:59;;;;;;;25.80;18.80;;;;;;;-0.46;100.00;101236.88;10358620;28;20131;-78
2022/11/14 02:11:00;;;;;;;23.47;17.57;;;;;;;-0.53;100.00;101228.38;10327295;28;20041;-78
2022/11/14 02:16:00;;;;;;;27.13;17.17;;;;;;;-0.52;100.00;101219.91;10359790;28;20141;-78
2022/11/14 02:21:01;;;;;;;25.92;17.38;;;;;;;-0.28;100.00;101218.84;10342883;28;20474;-78
2022/11/14 02:26:01;;;;;;;24.02;15.77;;;;;;;-0.23;100.00;101207.31;10358259;28;20070;-78
2022/11/14 02:31:02;;;;;;;22.38;15.75;;;;;;;-0.19;100.00;101203.34;10359742;28;20133;-78
2022/11/14 02:36:03;;;;;;;22.70;15.38;;;;;;;-0.27;100.00;101201.72;10352137;28;20030;-78
2022/11/14 02:41:03;;;;;;;17.48;13.65;;;;;;;-0.23;100.00;101196.09;10359832;28;20125;-78
2022/11/14 02:46:04;;;;;;;21.15;13.98;;;;;;;0.01;100.00;101183.78;10358550;28;20041;-78
2022/11/14 02:51:05;;;;;;;20.00;15.00;;;;;;;0.12;100.00;101178.91;10358743;28;20125;-78
2022/11/14 02:56:05;;;;;;;21.38;15.82;;;;;;;0.07;100.00;101171.47;10358847;28;20041;-78
2022/11/14 03:01:06;;;;;;;29.08;19.00;;;;;;;0.09;100.00;101172.53;10358117;28;20474;-77
2022/11/14 03:06:06;;;;;;;22.08;15.88;;;;;;;0.11;100.00;101169.34;10340022;28;20494;-77
2022/11/14 03:11:08;;;;;;;25.88;18.40;;;;;;;0.07;100.00;101163.75;10362552;28;20106;-77
2022/11/14 03:16:09;;;;;;;32.80;16.63;;;;;;;-0.05;100.00;101161.84;10366125;28;20426;-77
2022/11/14 03:21:15;;;;;;;22.60;16.52;;;;;;;0.08;100.00;101165.56;10364724;28;20042;-77
2022/11/14 03:26:15;;;;;;;23.25;15.45;;;;;;;0.07;100.00;101166.34;10366199;28;20129;-77
2022/11/14 03:31:16;;;;;;;19.42;15.27;;;;;;;0.19;100.00;101164.91;10347340;28;20038;-77
2022/11/14 03:36:16;;;;;;;21.52;16.65;;;;;;;-0.05;100.00;101159.25;10366790;28;20026;-77
2022/11/14 03:41:17;;;;;;;21.35;15.73;;;;;;;-0.04;100.00;101155.94;10365319;28;20113;-78
2022/11/14 03:46:17;;;;;;;35.03;17.73;;;;;;;-0.17;100.00;101153.88;10347757;28;20071;-77
2022/11/14 03:51:18;;;;;;;29.52;17.65;;;;;;;-0.51;100.00;101160.00;10365985;28;20041;-77
2022/11/14 03:56:18;;;;;;;27.70;17.60;;;;;;;-0.80;100.00;101153.88;10363343;28;20040;-77
2022/11/14 04:01:19;;;;;;;24.13;18.75;;;;;;;-0.93;100.00;101145.72;10363354;28;20464;-77
2022/11/14 04:06:19;;;;;;;22.02;16.75;;;;;;;-0.92;100.00;101147.53;10363557;28;20048;-78
2022/11/14 04:11:20;;;;;;;28.13;18.52;;;;;;;-0.92;100.00;101143.28;10364251;28;20049;-77
2022/11/14 04:16:20;;;;;;;27.40;15.23;;;;;;;-0.84;100.00;101145.69;10361739;28;20057;-77
2022/11/14 04:21:21;;;;;;;23.88;18.05;;;;;;;-0.83;100.00;101144.94;10345691;28;20053;-77
2022/11/14 04:26:21;;;;;;;23.70;16.95;;;;;;;-0.79;100.00;101142.84;10364320;28;20052;-78
2022/11/14 04:31:22;;;;;;;20.23;18.00;;;;;;;-0.71;100.00;101133.28;10363436;28;20116;-78
2022/11/14 04:36:22;;;;;;;24.33;16.90;;;;;;;-0.76;100.00;101124.22;10364071;28;20168;-78
2022/11/14 04:41:23;;;;;;;25.80;16.23;;;;;;;-0.97;100.00;101126.50;10361430;28;20923;-77
2022/11/14 04:46:23;;;;;;;25.13;17.67;;;;;;;-1.09;100.00;101133.00;10365148;28;20091;-77
2022/11/14 04:51:24;;;;;;;31.15;20.35;;;;;;;-1.18;100.00;101125.31;10343784;28;20045;-77
2022/11/14 04:56:24;;;;;;;24.52;18.73;;;;;;;-1.25;100.00;101125.47;10361153;28;20046;-77
2022/11/14 05:01:25;;;;;;;29.33;18.20;;;;;;;-1.21;100.00;101112.16;10362932;28;20198;-77
2022/11/14 05:06:25;;;;;;;23.83;15.40;;;;;;;-1.27;100.00;101109.88;10362055;28;20077;-77
2022/11/14 05:11:26;;;;;;;24.25;15.60;;;;;;;-1.24;100.00;101115.31;10361173;28;20528;-77
2022/11/14 05:16:27;;;;;;;28.88;17.63;;;;;;;-1.23;100.00;101113.69;10360590;28;20120;-78
2022/11/14 05:21:27;;;;;;;24.40;17.00;;;;;;;-1.45;100.00;101098.72;10360452;28;20076;-77
2022/11/14 05:26:28;;;;;;;27.13;16.90;;;;;;;-1.48;100.00;101098.41;10361070;28;20121;-77
2022/11/14 05:31:28;;;;;;;28.58;16.77;;;;;;;-1.45;100.00;101100.34;10360390;28;20038;-77
2022/11/14 05:36:29;;;;;;;33.25;16.88;;;;;;;-1.41;100.00;101115.31;10322531;28;20099;-77
2022/11/14 05:41:29;;;;;;;20.17;15.02;;;;;;;-1.40;100.00;101092.38;10359032;28;20038;-77
2022/11/14 05:46:29;;;;;;;25.23;15.32;;;;;;;-1.40;100.00;101088.88;10360616;28;20100;-78
2022/11/14 05:51:30;;;;;;;22.95;15.50;;;;;;;-1.48;100.00;101078.75;10357439;28;20460;-78
2022/11/14 05:56:31;;;;;;;26.30;17.83;;;;;;;-1.50;100.00;101067.44;10356701;28;20045;-79
2022/11/14 06:01:31;;;;;;;36.10;20.13;;;;;;;-1.56;100.00;101071.97;10357628;28;20038;-79
2022/11/14 06:06:32;;;;;;;21.85;16.65;;;;;;;-1.55;100.00;101060.03;10358049;28;20034;-79
2022/11/14 06:11:32;;;;;;;23.30;18.17;;;;;;;-1.63;100.00;101070.47;10359207;28;20029;-81
2022/11/14 06:16:33;;;;;;;26.55;16.95;;;;;;;-1.71;100.00;101061.09;10339718;28;20068;-81
2022/11/14 06:21:33;;;;;;;24.45;19.08;;;;;;;-1.74;100.00;101063.34;10355594;28;20037;-79
2022/11/14 06:26:34;;;;;;;25.08;16.48;;;;;;;-1.69;100.00;101079.19;10356258;28;20054;-81
2022/11/14 06:31:35;;;;;;;25.13;16.55;;;;;;;-1.66;100.00;101072.72;10347443;28;20041;-82
2022/11/14 06:36:36;;;;;;;23.23;15.10;;;;;;;-1.63;100.00;101078.16;10352821;28;20038;-81
2022/11/14 06:41:36;;;;;;;33.58;17.83;;;;;;;-1.52;100.00;101078.31;10339794;28;20042;-83
2022/11/14 06:46:37;;;;;;;25.13;16.83;;;;;;;-1.64;100.00;101078.91;10359187;28;20100;-81
2022/11/14 06:51:37;;;;;;;26.98;17.92;;;;;;;-1.64;100.00;101081.47;10357835;28;20072;-83
2022/11/14 06:56:38;;;;;;;29.73;19.30;;;;;;;-1.66;100.00;101082.06;10339610;28;20457;-82
2022/11/14 07:01:38;;;;;;;31.20;19.40;;;;;;;-1.64;100.00;101088.25;10358661;28;20053;-84
2022/11/14 07:06:39;;;;;;;24.00;17.55;;;;;;;-1.61;100.00;101085.09;10357287;28;20487;-82
2022/11/14 07:11:39;;;;;;;23.17;17.27;;;;;;;-1.57;100.00;101082.09;10354902;28;20034;-78
2022/11/14 07:16:40;;;;;;;22.33;14.95;;;;;;;-1.43;100.00;101075.75;10356405;28;20121;-81
2022/11/14 07:21:40;;;;;;;27.98;17.60;;;;;;;-1.32;100.00;101082.84;10356485;28;20080;-81
2022/11/14 07:26:41;;;;;;;25.58;16.42;;;;;;;-1.20;100.00;101075.47;10337284;28;20162;-81
2022/11/14 07:31:41;;;;;;;25.48;18.67;;;;;;;-1.13;100.00;101079.50;10339105;28;20125;-79
2022/11/14 07:36:42;;;;;;;21.42;16.38;;;;;;;-1.01;100.00;101073.00;10335167;28;20074;-79
2022/11/14 07:41:43;;;;;;;24.08;18.63;;;;;;;-0.84;100.00;101073.72;10347550;28;20137;-80
2022/11/14 07:46:43;;;;;;;24.58;16.92;;;;;;;-0.93;100.00;101071.19;10357285;28;20060;-81
2022/11/14 07:51:44;;;;;;;24.77;19.73;;;;;;;-1.07;100.00;101075.91;10356170;28;20088;-82
2022/11/14 07:56:44;;;;;;;29.40;20.95;;;;;;;-1.14;100.00;101075.13;10362167;28;20097;-82
2022/11/14 08:01:45;;;;;;;27.98;18.30;;;;;;;-1.07;100.00;101073.31;10362555;28;20129;-82
2022/11/14 08:06:45;;;;;;;29.58;19.85;;;;;;;-0.86;100.00;101071.03;10364147;28;20041;-81
2022/11/14 08:11:48;;;;;;;25.90;19.70;;;;;;;-0.58;100.00;101058.25;10364491;28;20034;-80
2022/11/14 08:16:49;;;;;;;29.35;19.50;;;;;;;-0.27;100.00;101061.16;10361774;28;20034;-80
2022/11/14 08:21:50;;;;;;;35.85;23.15;;;;;;;0.23;100.00;101055.41;10344242;28;20058;-80
2022/11/14 08:26:50;;;;;;;42.50;24.77;;;;;;;0.64;100.00;101050.56;10363472;28;20052;-80
2022/11/14 08:31:51;;;;;;;55.50;31.30;;;;;;;1.20;100.00;101047.75;10363359;28;20125;-78
2022/11/14 08:36:51;;;;;;;32.67;26.02;;;;;;;1.57;100.00;101050.97;10363375;28;20169;-80
2022/11/14 08:41:52;;;;;;;69.32;42.97;;;;;;;2.26;100.00;101039.53;10360911;28;20044;-79
2022/11/14 08:46:52;;;;;;;64.95;41.10;;;;;;;2.68;100.00;101023.97;10363742;28;20468;-79
2022/11/14 08:51:53;;;;;;;52.50;35.00;;;;;;;3.11;100.00;101023.97;10362525;28;20785;-78
2022/11/14 08:56:53;;;;;;;52.58;35.55;;;;;;;3.49;100.00;101013.19;10344079;28;20111;-78
2022/11/14 09:01:54;;;;;;;48.30;32.63;;;;;;;3.84;100.00;101011.50;10361080;28;20095;-78
2022/11/14 09:06:54;;;;;;;49.20;30.23;;;;;;;4.08;100.00;100990.06;10354905;28;20046;-78
2022/11/14 09:11:55;;;;;;;49.70;29.33;;;;;;;4.38;100.00;101013.91;10383882;28;20029;-78
2022/11/14 09:16:55;;;;;;;37.90;22.95;;;;;;;4.67;100.00;100996.13;10382511;28;20133;-78
2022/11/14 09:21:56;;;;;;;45.45;24.67;;;;;;;4.92;100.00;100990.13;10377772;28;20403;-83
2022/11/14 09:26:56;;;;;;;30.35;19.40;;;;;;;5.19;100.00;100990.31;10372580;28;20052;-81
2022/11/14 09:31:58;;;;;;;35.13;20.30;;;;;;;5.56;100.00;100973.03;10372977;28;20502;-81
2022/11/14 09:36:58;;;;;;;27.87;19.10;;;;;;;6.27;100.00;100963.06;10379249;28;20076;-83
2022/11/14 09:42:11;;;;;;;29.63;19.23;;;;;;;9.35;90.61;100964.97;10374703;28;20133;-82
2022/11/14 09:47:20;;;;;;;24.13;15.95;;;;;;;10.96;72.39;100968.72;10378756;28;20129;-80
2022/11/14 09:52:36;;;;;;;21.73;15.30;;;;;;;12.23;66.50;100970.94;10383012;28;20056;-80
2022/11/14 09:57:36;;;;;;;20.92;13.15;;;;;;;13.21;63.20;100970.50;10359364;28;20038;-78
2022/11/14 10:02:51;;;;;;;23.90;15.55;;;;;;;13.68;60.00;100969.63;10374783;28;20545;-79
2022/11/14 10:08:28;;;;;;;21.13;15.60;;;;;;;13.57;56.30;100972.75;10358159;28;20121;-80
2022/11/14 10:13:47;;;;;;;22.83;14.40;;;;;;;12.88;58.29;100978.84;10382425;28;20037;-79
2022/11/14 10:18:53;;;;;;;22.15;14.73;;;;;;;11.24;63.26;100984.03;10382234;28;20045;-83
2022/11/14 10:24:01;;;;;;;28.90;18.40;;;;;;;9.53;71.22;100978.16;10373357;28;20551;-78
2022/11/14 10:29:23;;;;;;;29.83;14.85;;;;;;;8.59;76.11;100967.72;10376138;28;20038;-79
2022/11/14 10:34:25;;;;;;;22.58;15.18;;;;;;;8.17;78.53;100974.00;10366445;28;20041;-79
2022/11/14 10:39:29;;;;;;;;;;;;;;;7.96;80.56;100963.22;10375714;28;20046;-79
2022/11/14 10:44:33;;;;;;;21.52;15.57;;;;;;;7.74;80.74;100964.53;10356338;28;19925;-85
2022/11/14 10:49:35;;;;;;;24.38;16.90;;;;;;;7.57;82.59;100957.41;10346134;28;20037;-82
2022/11/14 10:54:58;;;;;;;31.70;16.77;;;;;;;7.26;83.63;100947.69;10352315;28;20056;-80
2022/11/14 10:59:59;;;;;;;28.10;17.85;;;;;;;7.35;85.25;100943.94;10348575;28;20049;-80
2022/11/14 11:05:10;;;;;;;24.17;16.02;;;;;;;7.23;85.07;100934.50;10371893;28;20080;-82
2022/11/14 11:15:41;;;;;;;31.00;19.02;;;;;;;7.14;85.77;100940.91;10364962;28;20061;-78
2022/11/14 11:20:41;;;;;;;28.58;17.42;;;;;;;7.15;86.53;100931.41;10354164;28;20516;-80
2022/11/14 11:25:42;;;;;;;26.30;17.90;;;;;;;7.31;85.22;100922.84;10375351;28;20044;-78
2022/11/14 11:30:55;;;;;;;30.02;18.95;;;;;;;7.26;84.68;100930.34;10365234;28;20796;-78
2022/11/14 11:36:00;;;;;;;29.48;20.13;;;;;;;7.28;85.33;100907.03;10369931;28;20037;-79
2022/11/14 11:41:26;;;;;;;28.33;18.00;;;;;;;7.33;85.19;100916.03;10335207;28;20066;-78
2022/11/14 11:46:31;;;;;;;24.77;17.30;;;;;;;7.39;85.98;100913.81;10363758;28;20104;-77
2022/11/14 11:51:32;;;;;;;27.38;17.52;;;;;;;7.39;85.54;100902.47;10381280;28;20046;-79
2022/11/14 11:56:32;;;;;;;32.40;19.55;;;;;;;7.55;83.89;100896.50;10373916;28;20037;-79
2022/11/14 12:01:33;;;;;;;36.25;20.15;;;;;;;7.75;83.03;100889.88;10367916;28;20038;-78
2022/11/14 12:06:39;;;;;;;22.02;15.38;;;;;;;7.87;81.88;100911.44;10370976;28;20406;-79
2022/11/14 12:11:45;;;;;;;24.48;16.95;;;;;;;7.74;80.86;100917.66;10363699;28;20034;-78
2022/11/14 12:16:58;;;;;;;21.38;15.23;;;;;;;7.61;81.45;100913.38;10343259;28;20041;-78
2022/11/14 12:22:16;;;;;;;22.02;13.85;;;;;;;7.69;81.23;100885.22;10375200;28;20480;-82
2022/11/14 12:27:59;;;;;;;18.50;12.30;;;;;;;9.83;72.49;100882.97;10382520;28;20041;-78
2022/11/14 12:33:03;;;;;;;16.10;9.23;;;;;;;12.10;61.18;100870.72;10355997;28;20133;-78
2022/11/14 12:38:05;;;;;;;16.13;10.80;;;;;;;13.06;57.54;100858.72;10371208;28;20048;-78
2022/11/14 12:43:28;;;;;;;13.73;10.63;;;;;;;13.61;53.04;100863.28;10345483;28;20091;-78
2022/11/14 12:48:31;;;;;;;13.93;10.40;;;;;;;13.79;53.35;100869.19;10387332;28;20057;-79
2022/11/14 12:53:37;;;;;;;17.30;11.43;;;;;;;13.70;54.38;100863.63;10373994;28;20069;-79
2022/11/14 12:59:11;;;;;;;17.50;11.95;;;;;;;11.10;61.83;100856.75;10386772;28;20040;-80
2022/11/14 13:04:21;;;;;;;20.30;12.20;;;;;;;9.57;68.05;100855.50;10376884;28;20502;-78
2022/11/14 13:09:36;;;;;;;20.63;12.88;;;;;;;8.91;71.64;100857.34;10373112;28;20046;-80
2022/11/14 13:26:20;;;;;;;27.13;14.15;;;;;;;7.83;78.12;100844.31;10383370;28;20037;-80
2022/11/14 13:31:24;;;;;;;25.10;14.60;;;;;;;7.80;79.73;100841.53;10379450;28;20034;-80
2022/11/14 13:36:34;;;;;;;22.75;14.85;;;;;;;7.84;80.03;100817.44;10374365;28;20379;-79
2022/11/14 13:41:55;;;;;;;18.83;14.30;;;;;;;7.92;80.00;100829.22;10384926;28;20048;-79
2022/11/14 13:47:34;;;;;;;24.45;14.35;;;;;;;7.96;79.96;100829.38;10381123;28;20037;-80
2022/11/14 13:52:43;;;;;;;23.33;12.50;;;;;;;7.82;79.98;100839.03;10293386;28;20448;-80
2022/11/14 13:58:04;;;;;;;26.33;14.60;;;;;;;7.62;81.48;100829.22;10358446;28;20042;-80
2022/11/14 14:03:19;;;;;;;24.30;13.93;;;;;;;7.47;81.57;100830.91;10364095;28;20099;-80
2022/11/14 14:08:51;;;;;;;26.83;14.48;;;;;;;7.33;82.33;100832.72;10376979;28;20049;-81
2022/11/14 14:13:59;;;;;;;19.20;13.40;;;;;;;7.22;83.62;100821.63;10373520;28;20049;-80
2022/11/14 14:19:38;;;;;;;25.60;14.75;;;;;;;7.11;84.02;100825.28;10376254;28;20034;-80
2022/11/14 14:25:03;;;;;;;22.17;14.65;;;;;;;7.14;85.01;100815.97;10310319;28;20490;-81
2022/11/14 14:30:10;;;;;;;23.05;14.63;;;;;;;7.12;85.38;100819.28;10362591;28;20041;-80
2022/11/14 14:35:30;;;;;;;21.38;13.13;;;;;;;7.08;84.47;100818.22;10376756;28;20037;-79
2022/11/14 14:40:34;;;;;;;22.23;14.40;;;;;;;7.01;86.29;100819.53;10381651;28;20041;-79
2022/11/14 14:45:45;;;;;;;25.65;13.68;;;;;;;6.94;86.57;100813.88;10358104;28;20057;-79
2022/11/14 14:50:53;;;;;;;22.00;15.20;;;;;;;6.85;87.07;100816.78;10357422;28;20038;-79
2022/11/14 14:55:58;;;;;;;27.02;14.07;;;;;;;6.77;88.33;100803.31;10363322;28;20091;-80
2022/11/14 15:01:03;;;;;;;24.65;15.45;;;;;;;6.65;89.81;100798.25;10360231;28;20048;-79
2022/11/14 15:06:28;;;;;;;25.55;15.40;;;;;;;6.54;92.02;100804.47;10358619;28;20045;-79
2022/11/14 15:11:29;;;;;;;21.08;14.52;;;;;;;6.47;92.73;100800.59;10384761;28;20045;-80
2022/11/14 15:16:29;;;;;;;21.52;15.40;;;;;;;6.41;92.90;100787.22;10368445;28;20116;-81
2022/11/14 15:21:30;;;;;;;24.45;13.80;;;;;;;6.34;94.05;100783.31;10372121;28;20175;-78
2022/11/14 15:26:30;;;;;;;23.60;15.40;;;;;;;6.31;94.71;100780.50;10396876;28;20061;-79
2022/11/14 15:31:31;;;;;;;27.85;16.13;;;;;;;6.21;95.71;100789.44;10369448;28;20030;-78
2022/11/14 15:36:31;;;;;;;26.08;15.60;;;;;;;6.13;95.60;100786.34;10371571;28;20039;-78
2022/11/14 15:41:32;;;;;;;21.58;15.50;;;;;;;6.08;97.12;100779.06;10382509;28;20038;-78
2022/11/14 15:46:33;;;;;;;27.65;15.63;;;;;;;6.02;97.21;100766.56;10369765;28;20095;-78
2022/11/14 15:51:47;;;;;;;26.52;16.08;;;;;;;5.98;98.18;100769.72;10367685;28;20060;-77
2022/11/14 15:56:48;;;;;;;18.60;12.73;;;;;;;5.98;98.18;100765.44;10364568;28;20081;-78
2022/11/14 16:01:50;;;;;;;16.90;11.40;;;;;;;5.91;98.74;100759.72;10387049;28;20041;-78
2022/11/14 16:06:51;;;;;;;21.25;13.05;;;;;;;5.90;99.51;100764.06;10368298;28;20444;-79
2022/11/14 16:11:51;;;;;;;14.20;10.18;;;;;;;5.88;100.00;100763.06;10378746;28;20038;-78
2022/11/14 16:16:52;;;;;;;27.58;15.48;;;;;;;5.82;100.00;100758.34;10378734;28;20048;-79
2022/11/14 16:21:52;;;;;;;18.63;10.32;;;;;;;5.81;100.00;100766.94;10384681;28;20681;-78
2022/11/14 16:26:53;;;;;;;21.92;12.50;;;;;;;5.77;100.00;100753.66;10379840;28;20042;-78
2022/11/14 16:31:54;;;;;;;14.30;12.15;;;;;;;5.75;100.00;100763.06;10369872;28;20453;-78
2022/11/14 16:36:59;;;;;;;15.68;10.10;;;;;;;5.71;100.00;100765.44;10361843;28;20038;-78
2022/11/14 16:42:00;;;;;;;14.93;10.10;;;;;;;5.73;100.00;100753.47;10361059;28;20130;-77
2022/11/14 16:47:01;;;;;;;17.35;10.52;;;;;;;5.67;100.00;100752.16;10377228;28;20042;-78
2022/11/14 16:52:05;;;;;;;17.48;12.00;;;;;;;5.70;100.00;100752.34;10376314;28;20475;-78
2022/11/14 16:57:06;;;;;;;21.65;13.68;;;;;;;5.75;100.00;100753.53;10375684;28;20038;-78
2022/11/14 17:02:11;;;;;;;14.85;11.30;;;;;;;5.73;100.00;100743.06;10360265;28;20064;-77
2022/11/14 17:07:12;;;;;;;23.50;13.90;;;;;;;5.75;100.00;100750.06;10364243;28;20144;-78
2022/11/14 17:12:13;;;;;;;15.82;8.88;;;;;;;5.76;100.00;100744.06;10387186;28;20049;-78
2022/11/14 17:17:13;;;;;;;16.77;9.32;;;;;;;5.65;100.00;100757.25;10351252;28;20043;-78
2022/11/14 17:22:15;;;;;;;18.70;12.88;;;;;;;5.55;100.00;100755.72;10367858;28;20131;-78
2022/11/14 17:27:15;;;;;;;16.33;9.23;;;;;;;5.37;100.00;100758.03;10382904;28;20038;-77
2022/11/14 17:32:16;;;;;;;16.08;9.80;;;;;;;5.33;100.00;100745.63;10392203;28;20133;-78
2022/11/14 17:37:16;;;;;;;14.07;9.55;;;;;;;4.94;100.00;100756.00;10369577;28;20110;-78
2022/11/14 17:42:17;;;;;;;14.05;9.38;;;;;;;4.58;100.00;100755.25;10369975;28;20037;-78
2022/11/14 17:47:18;;;;;;;21.38;11.70;;;;;;;4.29;100.00;100756.69;10388875;28;20048;-79
2022/11/14 17:52:19;;;;;;;20.50;12.60;;;;;;;3.89;100.00;100766.78;10338693;28;20048;-79
2022/11/14 17:57:19;;;;;;;20.95;13.38;;;;;;;3.90;100.00;100756.53;10377849;28;20052;-79
2022/11/14 18:02:20;;;;;;;16.10;10.55;;;;;;;3.99;100.00;100750.22;10358557;28;20069;-79
2022/11/14 18:07:20;;;;;;;21.52;11.65;;;;;;;4.08;100.00;100749.19;10355105;28;20120;-79
2022/11/14 18:12:21;;;;;;;19.40;11.65;;;;;;;3.99;100.00;100752.81;10374100;28;20045;-79
2022/11/14 18:17:21;;;;;;;13.85;11.40;;;;;;;3.71;100.00;100753.41;10372080;28;20508;-78
2022/11/14 18:22:22;;;;;;;23.27;13.98;;;;;;;3.55;100.00;100747.09;10381258;28;20095;-80
2022/11/14 18:27:22;;;;;;;21.00;14.38;;;;;;;3.29;100.00;100748.63;10374315;28;20390;-79
2022/11/14 18:32:23;;;;;;;17.48;12.38;;;;;;;3.18;100.00;100749.53;10372340;28;20049;-79
2022/11/14 18:37:24;;;;;;;22.10;11.75;;;;;;;3.05;100.00;100753.75;10378934;28;20041;-77
2022/11/14 18:42:25;;;;;;;;;;;;;;;2.86;100.00;100751.44;10359272;28;20502;-80
2022/11/14 18:47:28;;;;;;;18.85;11.55;;;;;;;2.68;100.00;100744.84;10370132;28;19925;-80
2022/11/14 18:52:28;;;;;;;18.70;12.38;;;;;;;2.61;100.00;100746.97;10352951;28;20042;-78
2022/11/14 18:57:29;;;;;;;19.25;12.02;;;;;;;2.52;100.00;100741.09;10338962;28;20038;-79
2022/11/14 19:02:29;;;;;;;18.85;13.13;;;;;;;2.46;100.00;100740.59;10353304;28;20180;-78
2022/11/14 19:07:30;;;;;;;20.80;12.18;;;;;;;2.51;100.00;100735.81;10356608;28;20042;-79
2022/11/14 19:12:31;;;;;;;23.88;13.35;;;;;;;2.45;100.00;100733.63;10357020;28;20108;-79
2022/11/14 19:17:32;;;;;;;23.77;14.80;;;;;;;2.45;100.00;100737.13;10338366;28;20038;-78
2022/11/14 19:22:33;;;;;;;19.50;13.13;;;;;;;2.50;100.00;100734.91;10356641;28;20117;-79
2022/11/14 19:27:33;;;;;;;19.20;14.02;;;;;;;2.49;100.00;100743.44;10351477;28;20188;-79
2022/11/14 19:32:34;;;;;;;22.90;15.52;;;;;;;2.54;100.00;100746.38;10354740;28;20200;-78
2022/11/14 19:37:34;;;;;;;19.27;13.57;;;;;;;2.70;100.00;100746.78;10336701;28;20082;-78
2022/11/14 19:42:35;;;;;;;27.23;15.32;;;;;;;2.87;100.00;100754.94;10353652;28;20121;-77
2022/11/14 19:47:35;;;;;;;20.45;13.65;;;;;;;3.07;100.00;100764.22;10356975;28;20079;-77
2022/11/14 19:52:36;;;;;;;21.13;13.57;;;;;;;3.02;100.00;100763.88;10358213;28;20042;-78
2022/11/14 19:57:37;;;;;;;16.90;11.98;;;;;;;2.88;100.00;100764.50;10359318;28;20379;-78
2022/11/14 20:02:39;;;;;;;20.90;13.45;;;;;;;2.91;100.00;100759.56;10359325;28;20046;-77
2022/11/14 20:07:39;;;;;;;21.73;12.38;;;;;;;3.01;100.00;100749.16;10358282;28;20390;-78
2022/11/14 20:12:40;;;;;;;22.13;13.30;;;;;;;3.16;100.00;100741.63;10359420;28;20045;-78
2022/11/14 20:17:40;;;;;;;20.25;12.02;;;;;;;3.34;100.00;100741.22;10359392;28;20047;-79
2022/11/14 20:22:41;;;;;;;17.35;12.32;;;;;;;3.51;100.00;100735.59;10358616;28;20169;-80
2022/11/14 20:27:41;;;;;;;16.35;12.98;;;;;;;3.69;100.00;100742.03;10359411;28;20042;-80
2022/11/14 20:32:42;;;;;;;17.27;12.13;;;;;;;3.80;100.00;100741.13;10359100;28;20124;-81
2022/11/14 20:37:43;;;;;;;21.38;15.07;;;;;;;3.95;100.00;100728.38;10366737;28;20038;-78
2022/11/14 20:42:46;;;;;;;23.55;14.07;;;;;;;4.04;100.00;100730.75;10355242;28;20040;-77
2022/11/14 20:47:47;;;;;;;20.33;13.15;;;;;;;4.12;100.00;100732.19;10340624;28;20084;-77
2022/11/14 20:52:48;;;;;;;18.90;12.02;;;;;;;4.22;100.00;100733.72;10356752;28;20499;-78
2022/11/14 20:57:48;;;;;;;18.60;13.48;;;;;;;4.33;100.00;100732.78;10356851;28;20057;-78
2022/11/14 21:02:49;;;;;;;22.73;12.82;;;;;;;4.42;100.00;100727.38;10357019;28;20124;-79
2022/11/14 21:07:50;;;;;;;19.63;11.35;;;;;;;4.49;100.00;100726.09;10373131;28;20041;-78
2022/11/14 21:13:54;;;;;;;24.27;12.25;;;;;;;4.50;100.00;100720.13;10358383;28;20073;-78
2022/11/14 21:18:11;;;;;;;20.40;13.20;;;;;;;4.58;100.00;100721.56;10373260;28;20042;-79
2022/11/14 21:23:12;;;;;;;17.90;11.43;;;;;;;4.65;100.00;100720.31;10377201;28;20049;-79
2022/11/14 21:28:12;;;;;;;17.77;11.68;;;;;;;4.72;100.00;100716.44;10369988;28;20045;-79
2022/11/14 21:33:13;;;;;;;18.50;14.38;;;;;;;4.80;100.00;100721.34;10365599;28;20070;-79
2022/11/14 21:38:13;;;;;;;17.20;12.55;;;;;;;4.87;100.00;100708.81;10358082;28;20176;-78
2022/11/14 21:43:14;;;;;;;17.98;12.02;;;;;;;4.89;100.00;100718.47;10358418;28;20567;-78
2022/11/14 21:48:14;;;;;;;16.60;11.00;;;;;;;4.94;100.00;100713.63;10357415;28;20037;-78
2022/11/14 21:53:15;;;;;;;23.52;14.20;;;;;;;5.03;100.00;100711.66;10358489;28;20976;-78
2022/11/14 21:58:15;;;;;;;19.40;13.32;;;;;;;5.09;100.00;100700.75;10374200;28;20046;-78
2022/11/14 22:08:35;;;;;;;27.75;12.52;;;;;;;5.25;100.00;100703.59;10343562;28;20037;-80
2022/11/14 22:13:36;;;;;;;17.52;11.57;;;;;;;5.35;100.00;100701.59;10374068;28;20466;-77
2022/11/14 22:18:36;;;;;;;20.15;12.13;;;;;;;5.42;100.00;100702.13;10358919;28;20034;-79
2022/11/14 22:23:37;;;;;;;19.10;12.98;;;;;;;5.51;100.00;100690.53;10358761;28;20120;-77
2022/11/14 22:28:38;;;;;;;22.17;14.18;;;;;;;5.57;100.00;100683.16;10356894;28;20113;-78
2022/11/14 22:33:40;;;;;;;17.90;11.82;;;;;;;5.63;100.00;100688.75;10358697;28;20096;-80
2022/11/14 22:38:41;;;;;;;18.40;11.98;;;;;;;5.69;100.00;100685.63;10347160;28;20045;-78
2022/11/14 22:43:41;;;;;;;15.95;11.13;;;;;;;5.70;100.00;100690.03;10372604;28;20401;-78
2022/11/14 22:48:42;;;;;;;18.70;12.73;;;;;;;5.77;100.00;100686.13;10339652;28;20046;-79
2022/11/14 22:53:47;;;;;;;24.60;13.60;;;;;;;5.85;100.00;100684.94;10355030;28;20046;-78
2022/11/14 22:58:48;;;;;;;25.17;14.38;;;;;;;5.98;100.00;100682.31;10370992;28;20042;-79
2022/11/14 23:03:55;;;;;;;22.60;13.23;;;;;;;6.11;100.00;100680.50;10356498;28;20046;-78